Middlesbrough, United Kingdom
Current Conditions -  °F | °C
As of 9:50 PM on Tuesday 25 Nov 2014 (Local Time) from EGNV Reporting Station
Haze Haze  
Wind Chill: 36°   Ceiling: Unl
Heat Index: 36°   Visibility: 1.5mi
Dew Point: 36°   Wind: 1mph
Humidity: 100%   Direction: NA
Pressure: 30.18"   Gusts: NA
Location:  54.57°N, 1.24°W
Report Text: EGNV 252150Z VRB01KT 2500 R23/P1000 R05/P1400 BR SCT035 02/02 Q1022
Loading
Personal Weather Stations






























Interactive Weather Map New forecast layout! Learn more

10-Day Weather Forecast

Advertisements
Track Severe Weather on mobile